Time;durP1;ratioP1;P1;durP2;ratioP2;P2;SDS_P1;SDS_P2;PMS_P1;PMS_P2;Temp;Humidity;BMP_temperature;BMP_pressure;BME280_temperature;BME280_humidity;BME280_pressure;Samples;Min_cycle;Max_cycle;Signal;HPM_P1;HPM_P2
2022/03/21 00:01:10;;;;;;;22.58;10.78;;;;;;;2.12;44.91;102757.58;1746130;80;22284;-54
2022/03/21 00:03:39;;;;;;;17.82;11.85;;;;;;;2.18;44.75;102761.41;1717040;83;21041;-54
2022/03/21 00:06:06;;;;;;;19.98;12.75;;;;;;;2.18;44.69;102750.16;1756212;80;21234;-54
2022/03/21 00:08:35;;;;;;;20.08;12.18;;;;;;;2.23;44.63;102753.14;1764416;81;20996;-53
2022/03/21 00:11:04;;;;;;;20.45;12.03;;;;;;;2.27;44.53;102747.94;1700765;82;21028;-53
2022/03/21 00:13:31;;;;;;;25.15;12.82;;;;;;;2.25;44.65;102747.94;1685678;83;21186;-53
2022/03/21 00:15:59;;;;;;;20.60;12.93;;;;;;;2.25;44.60;102743.20;1704166;83;21553;-53
2022/03/21 00:18:28;;;;;;;22.25;11.90;;;;;;;2.30;44.62;102734.48;1690726;84;21068;-53
2022/03/21 00:20:57;;;;;;;23.22;12.80;;;;;;;2.37;44.56;102730.98;1758337;80;21019;-53
2022/03/21 00:23:24;;;;;;;22.13;12.55;;;;;;;2.35;44.62;102730.55;1763121;80;20992;-53
2022/03/21 00:25:53;;;;;;;21.40;12.65;;;;;;;2.32;44.81;102730.16;1767229;80;21023;-54
2022/03/21 00:28:20;;;;;;;18.87;11.80;;;;;;;2.29;44.90;102735.82;1758551;80;21015;-53
2022/03/21 00:30:47;;;;;;;20.48;13.18;;;;;;;2.23;45.04;102728.91;1751549;80;21045;-53
2022/03/21 00:33:15;;;;;;;25.30;13.45;;;;;;;2.18;45.19;102725.48;1755918;80;21575;-53
2022/03/21 00:35:42;;;;;;;18.52;12.37;;;;;;;2.12;45.42;102722.92;1757842;79;21099;-53
2022/03/21 00:38:14;;;;;;;22.20;13.22;;;;;;;2.15;45.56;102722.50;1752464;79;20972;-53
2022/03/21 00:40:44;;;;;;;20.20;12.05;;;;;;;2.16;45.53;102722.91;1762268;79;21024;-53
2022/03/21 00:43:10;;;;;;;22.00;12.30;;;;;;;2.16;45.40;102725.50;1742266;82;21077;-53
2022/03/21 00:45:38;;;;;;;21.50;13.32;;;;;;;2.15;45.41;102719.02;1761199;79;21050;-54
2022/03/21 00:48:05;;;;;;;20.00;12.47;;;;;;;2.12;45.84;102719.03;1712731;82;21078;-54
2022/03/21 00:50:35;;;;;;;20.37;12.07;;;;;;;2.10;46.06;102709.98;1758796;79;21827;-54
2022/03/21 00:53:02;;;;;;;20.23;12.33;;;;;;;2.09;46.51;102711.29;1742260;82;21047;-53
2022/03/21 00:55:30;;;;;;;23.57;12.40;;;;;;;2.09;47.21;102709.98;1766506;79;22104;-54
2022/03/21 00:57:58;;;;;;;19.50;11.48;;;;;;;2.06;47.65;102714.75;1760332;80;21066;-54
2022/03/21 01:00:28;;;;;;;20.20;11.33;;;;;;;2.05;48.31;102711.72;1776559;79;21521;-53
2022/03/21 01:02:59;;;;;;;17.25;11.48;;;;;;;2.07;48.72;102703.92;1771879;80;21028;-54
2022/03/21 01:05:27;;;;;;;20.05;11.68;;;;;;;2.05;48.90;102701.33;1769018;79;20972;-53
2022/03/21 01:07:57;;;;;;;22.48;12.43;;;;;;;2.01;50.33;102694.00;1771189;80;21032;-54
2022/03/21 01:10:26;;;;;;;18.48;11.95;;;;;;;2.00;50.97;102701.80;1768910;80;21723;-54
2022/03/21 01:12:55;;;;;;;23.10;13.55;;;;;;;1.97;51.34;102704.00;1755665;79;21038;-54
2022/03/21 01:15:24;;;;;;;22.22;12.45;;;;;;;1.93;51.57;102698.38;1722075;81;21932;-53
2022/03/21 01:17:53;;;;;;;21.75;13.30;;;;;;;1.88;51.70;102691.06;1771429;80;21016;-54
2022/03/21 01:20:21;;;;;;;21.82;13.30;;;;;;;1.86;51.66;102694.11;1778143;79;21039;-54
2022/03/21 01:22:48;;;;;;;21.20;13.55;;;;;;;1.86;51.50;102695.41;1763189;80;21051;-54
2022/03/21 01:25:17;;;;;;;26.40;14.80;;;;;;;1.87;51.37;102693.25;1771335;79;21071;-53
2022/03/21 01:27:45;;;;;;;24.47;13.50;;;;;;;1.89;50.97;102695.84;1757348;80;21152;-54
2022/03/21 01:30:13;;;;;;;22.85;12.78;;;;;;;1.91;50.54;102693.64;1772620;79;21018;-54
2022/03/21 01:32:43;;;;;;;24.20;13.28;;;;;;;1.92;50.46;102699.28;1743415;80;21038;-54
2022/03/21 01:35:16;;;;;;;19.75;12.88;;;;;;;1.95;50.03;102696.66;1713370;82;21052;-53
2022/03/21 01:37:44;;;;;;;26.70;14.65;;;;;;;1.94;50.02;102694.92;1713083;81;21114;-53
2022/03/21 01:40:11;;;;;;;23.75;13.05;;;;;;;1.89;50.05;102701.03;1708356;81;21251;-53
2022/03/21 01:42:41;;;;;;;28.90;15.78;;;;;;;1.89;49.94;102698.44;1777917;79;21019;-53
2022/03/21 01:45:08;;;;;;;23.83;13.30;;;;;;;1.93;49.79;102700.98;1766668;79;21042;-54
2022/03/21 01:47:36;;;;;;;22.37;13.45;;;;;;;2.00;49.61;102696.61;1768248;79;21000;-53
2022/03/21 01:50:05;;;;;;;19.73;13.38;;;;;;;2.04;49.45;102688.79;1759907;80;21496;-53
2022/03/21 01:52:36;;;;;;;29.72;14.78;;;;;;;2.06;49.38;102694.42;1755423;80;21205;-54
2022/03/21 01:57:51;;;;;;;24.05;13.62;;;;;;;2.00;49.08;102694.89;1754975;80;21039;-53
2022/03/21 02:00:19;;;;;;;24.45;14.03;;;;;;;1.94;49.27;102698.82;1760514;80;21102;-53
2022/03/21 02:02:46;;;;;;;26.10;13.98;;;;;;;1.95;49.51;102701.86;1758143;80;21590;-53
2022/03/21 02:05:14;;;;;;;27.98;15.72;;;;;;;1.98;49.66;102703.11;1769484;79;21261;-54
2022/03/21 02:07:42;;;;;;;22.02;14.43;;;;;;;2.01;49.36;102694.00;1765136;80;21039;-53
2022/03/21 02:10:10;;;;;;;27.27;14.45;;;;;;;1.97;49.56;102700.11;1754467;80;21069;-53
2022/03/21 02:12:39;;;;;;;28.77;14.55;;;;;;;1.99;49.74;102695.76;1766271;80;21039;-53
2022/03/21 02:15:08;;;;;;;26.20;13.32;;;;;;;2.01;49.69;102693.15;1752253;80;21061;-53
2022/03/21 02:17:36;;;;;;;22.17;14.33;;;;;;;2.03;49.70;102694.87;1762446;79;21187;-53
2022/03/21 02:20:06;;;;;;;24.32;15.05;;;;;;;2.06;49.73;102690.53;1762469;80;21098;-54
2022/03/21 02:22:42;;;;;;;27.52;16.07;;;;;;;2.08;49.74;102692.67;1758617;79;21079;-53
2022/03/21 02:25:30;;;;;;;27.93;14.45;;;;;;;2.08;49.70;102689.62;1719885;79;21048;-54
2022/03/21 02:28:05;;;;;;;25.68;14.78;;;;;;;2.08;49.57;102691.37;1768086;80;21015;-54
2022/03/21 02:30:37;;;;;;;31.97;17.77;;;;;;;2.00;49.49;102697.49;1769982;79;21304;-53
2022/03/21 02:33:04;;;;;;;37.17;18.60;;;;;;;1.94;49.79;102703.16;1767395;79;21033;-54
2022/03/21 02:35:33;;;;;;;28.85;16.73;;;;;;;1.90;50.05;102706.22;1767567;79;21009;-54
2022/03/21 02:38:01;;;;;;;30.92;19.25;;;;;;;1.91;50.36;102703.18;1768059;79;21029;-54
2022/03/21 02:40:30;;;;;;;37.25;20.65;;;;;;;1.88;50.56;102702.75;1766268;79;21109;-54
2022/03/21 02:42:57;;;;;;;35.92;18.98;;;;;;;1.87;50.68;102698.45;1767230;79;21248;-54
2022/03/21 02:45:24;;;;;;;34.65;20.70;;;;;;;1.84;50.71;102696.72;1764477;79;21540;-53
2022/03/21 02:47:51;;;;;;;38.20;21.80;;;;;;;1.80;50.85;102701.52;1766823;79;20983;-54
2022/03/21 02:50:44;;;;;;;37.33;23.27;;;;;;;1.79;50.92;102697.19;1769815;80;21568;-53
2022/03/21 02:53:11;;;;;;;41.50;24.18;;;;;;;1.81;50.92;102697.17;1754312;80;20993;-54
2022/03/21 02:55:42;;;;;;;44.85;26.90;;;;;;;1.79;50.91;102704.97;1773410;79;21161;-54
2022/03/21 02:58:09;;;;;;;49.38;26.95;;;;;;;1.80;50.87;102689.84;1771441;79;21023;-54
2022/03/21 03:00:37;;;;;;;42.13;26.55;;;;;;;1.80;50.76;102698.03;1764466;80;21176;-54
2022/03/21 03:03:04;;;;;;;49.08;28.17;;;;;;;1.80;50.60;102697.63;1762003;80;21072;-54
2022/03/21 03:05:32;;;;;;;50.38;28.35;;;;;;;1.79;50.60;102701.52;1768407;79;21626;-54
2022/03/21 03:07:59;;;;;;;52.67;32.03;;;;;;;1.79;50.53;102698.48;1763303;80;21117;-54
2022/03/21 03:10:27;;;;;;;41.75;26.65;;;;;;;1.78;50.46;102695.89;1762260;79;21058;-54
2022/03/21 03:12:54;;;;;;;66.30;36.48;;;;;;;1.78;50.30;102697.19;1771315;79;21544;-54
2022/03/21 03:15:22;;;;;;;56.20;33.58;;;;;;;1.67;50.35;102695.52;1764109;80;21122;-54
2022/03/21 03:17:51;;;;;;;60.55;34.38;;;;;;;1.66;50.41;102682.55;1767187;80;21083;-54
2022/03/21 03:20:21;;;;;;;68.60;37.90;;;;;;;1.58;50.42;102682.62;1767147;79;21113;-54
2022/03/21 03:22:49;;;;;;;75.03;41.98;;;;;;;1.53;50.52;102681.78;1766433;79;21125;-54
2022/03/21 03:25:16;;;;;;;81.17;46.75;;;;;;;1.46;50.68;102691.33;1765033;80;21110;-54
2022/03/21 03:27:45;;;;;;;83.17;46.33;;;;;;;1.49;50.72;102687.84;1769233;80;21630;-54
2022/03/21 03:30:13;;;;;;;85.62;45.92;;;;;;;1.51;50.69;102687.39;1767399;80;21045;-54
2022/03/21 03:32:42;;;;;;;89.75;45.25;;;;;;;1.55;50.60;102687.82;1772941;79;21046;-54
2022/03/21 03:35:09;;;;;;;90.55;49.03;;;;;;;1.55;50.59;102681.33;1770238;79;21111;-54
2022/03/21 03:37:37;;;;;;;88.90;45.70;;;;;;;1.58;50.51;102687.81;1770777;79;21036;-54
2022/03/21 03:40:06;;;;;;;79.35;41.95;;;;;;;1.58;50.50;102674.83;1771664;79;21115;-53
2022/03/21 03:42:33;;;;;;;81.10;43.83;;;;;;;1.58;50.36;102672.23;1771051;79;21086;-54
2022/03/21 03:45:00;;;;;;;83.17;49.18;;;;;;;1.50;50.31;102670.12;1772914;80;21782;-54
2022/03/21 03:47:27;;;;;;;77.55;48.83;;;;;;;1.45;50.58;102670.58;1769602;79;21029;-54
2022/03/21 03:49:55;;;;;;;95.42;50.83;;;;;;;1.45;50.64;102680.95;1764574;80;21027;-54
2022/03/21 03:52:22;;;;;;;91.30;52.35;;;;;;;1.44;50.66;102683.11;1773651;79;21054;-54
2022/03/21 03:54:49;;;;;;;100.47;52.30;;;;;;;1.42;50.67;102683.56;1774971;80;21090;-54
2022/03/21 03:57:17;;;;;;;93.22;52.58;;;;;;;1.43;50.65;102683.55;1766011;79;21272;-54
2022/03/21 03:59:44;;;;;;;95.45;50.95;;;;;;;1.40;50.73;102678.38;1772233;80;21033;-54
2022/03/21 04:02:11;;;;;;;84.75;46.88;;;;;;;1.43;50.69;102677.07;1767409;80;21055;-54
2022/03/21 04:04:39;;;;;;;83.62;47.70;;;;;;;1.41;50.62;102673.63;1770954;79;21023;-54
2022/03/21 04:07:06;;;;;;;95.00;54.80;;;;;;;1.38;50.51;102677.94;1766576;79;21070;-54
2022/03/21 04:09:34;;;;;;;102.00;55.25;;;;;;;1.32;50.67;102678.84;1769160;80;21256;-54
2022/03/21 04:12:02;;;;;;;100.27;52.90;;;;;;;1.35;50.69;102675.39;1768450;79;21069;-54
2022/03/21 04:14:31;;;;;;;97.08;54.48;;;;;;;1.34;50.69;102675.80;1767414;80;21053;-54
2022/03/21 04:17:00;;;;;;;92.65;51.77;;;;;;;1.33;50.58;102674.51;1770542;80;21068;-54
2022/03/21 04:19:28;;;;;;;98.72;55.92;;;;;;;1.26;50.64;102673.27;1761946;79;21038;-54
2022/03/21 04:21:56;;;;;;;103.58;56.58;;;;;;;1.24;50.69;102671.09;1761358;79;21053;-54
2022/03/21 04:24:24;;;;;;;113.00;60.20;;;;;;;1.20;50.75;102674.57;1751065;80;21360;-54
2022/03/21 04:26:51;;;;;;;113.03;59.55;;;;;;;1.24;50.79;102680.61;1763536;79;21056;-54
2022/03/21 04:29:19;;;;;;;112.52;60.65;;;;;;;1.26;50.83;102675.86;1762594;80;21015;-54
2022/03/21 04:31:47;;;;;;;116.10;60.67;;;;;;;1.34;50.75;102672.36;1761373;80;21583;-54
2022/03/21 04:34:14;;;;;;;120.17;61.18;;;;;;;1.37;50.66;102668.01;1788213;79;21163;-54
2022/03/21 04:36:42;;;;;;;107.15;58.25;;;;;;;1.41;50.56;102665.84;1766503;79;21047;-54
2022/03/21 04:39:10;;;;;;;113.83;58.75;;;;;;;1.39;50.53;102661.52;1755956;80;21078;-54
2022/03/21 04:41:37;;;;;;;116.40;61.90;;;;;;;1.38;50.65;102661.08;1765848;79;21599;-54
2022/03/21 04:44:05;;;;;;;120.90;59.98;;;;;;;1.37;50.75;102668.01;1765545;80;21565;-54
2022/03/21 04:46:32;;;;;;;112.10;62.27;;;;;;;1.39;51.11;102668.00;1755890;80;21242;-54
2022/03/21 04:49:00;;;;;;;107.10;62.23;;;;;;;1.44;51.18;102677.48;1763311;80;21656;-54
2022/03/21 04:51:27;;;;;;;108.45;60.83;;;;;;;1.52;51.05;102668.81;1760272;79;20984;-54
2022/03/21 04:53:54;;;;;;;121.33;63.58;;;;;;;1.60;50.87;102669.64;1765189;79;21538;-54
2022/03/21 04:56:22;;;;;;;110.08;63.23;;;;;;;1.66;50.79;102670.46;1764087;79;21042;-54
2022/03/21 04:58:49;;;;;;;105.45;59.10;;;;;;;1.72;50.74;102673.89;1759503;80;21260;-54
2022/03/21 05:01:17;;;;;;;109.65;61.33;;;;;;;1.78;50.67;102669.94;1754753;80;21540;-54
2022/03/21 05:03:44;;;;;;;107.00;62.50;;;;;;;1.81;50.75;102669.92;1753999;80;22596;-54
2022/03/21 05:06:14;;;;;;;121.10;63.48;;;;;;;1.89;50.69;102665.98;1765352;79;21110;-54
2022/03/21 05:08:41;;;;;;;111.10;61.58;;;;;;;1.94;50.69;102671.56;1755256;80;21082;-53
2022/03/21 05:11:10;;;;;;;108.92;59.10;;;;;;;2.04;50.64;102674.95;1760836;79;21011;-54
2022/03/21 05:13:38;;;;;;;120.05;63.33;;;;;;;2.06;50.73;102671.05;1755958;79;21547;-53
2022/03/21 05:16:06;;;;;;;109.57;60.55;;;;;;;2.12;50.68;102672.28;1763005;80;21055;-53
2022/03/21 05:18:36;;;;;;;116.65;60.95;;;;;;;2.15;50.72;102661.87;1762270;80;21082;-53
2022/03/21 05:21:05;;;;;;;111.97;58.87;;;;;;;2.20;50.75;102665.29;1758830;80;21050;-53
2022/03/21 05:31:49;;;;;;;95.60;55.77;;;;;;;2.43;50.82;102674.64;1775501;79;21138;-54
2022/03/21 05:37:02;;;;;;;105.50;54.83;;;;;;;2.58;51.39;102673.19;1777177;79;21247;-54
2022/03/21 05:39:31;;;;;;;107.37;53.58;;;;;;;2.65;51.47;102680.03;1774403;79;21102;-54
2022/03/21 05:41:58;;;;;;;101.70;50.58;;;;;;;2.75;51.47;102684.71;1769893;80;21043;-54
2022/03/21 05:44:26;;;;;;;102.00;51.35;;;;;;;2.78;51.48;102671.23;1775580;79;21050;-54
2022/03/21 05:46:53;;;;;;;93.58;51.23;;;;;;;2.86;51.69;102678.08;1770029;79;21545;-54
2022/03/21 05:49:20;;;;;;;99.80;50.28;;;;;;;2.91;51.90;102673.72;1768883;80;21262;-54
2022/03/21 05:51:47;;;;;;;79.15;46.90;;;;;;;2.98;52.04;102677.97;1770071;79;21087;-54
2022/03/21 05:54:14;;;;;;;97.20;48.63;;;;;;;3.04;52.22;102679.17;1774714;80;21087;-54
2022/03/21 05:56:43;;;;;;;96.70;47.35;;;;;;;3.13;52.34;102680.38;1769652;80;21011;-54
2022/03/21 06:01:56;;;;;;;88.37;44.17;;;;;;;3.28;52.45;102670.67;1750169;79;21168;-53
2022/03/21 06:04:23;;;;;;;80.80;41.90;;;;;;;3.37;52.51;102681.41;1773750;79;21048;-53
2022/03/21 06:06:51;;;;;;;72.75;39.67;;;;;;;3.43;52.48;102678.28;1773989;80;21057;-53
2022/03/21 06:09:20;;;;;;;80.22;41.10;;;;;;;3.51;52.49;102672.53;1759805;80;21536;-53
2022/03/21 06:11:50;;;;;;;70.35;36.28;;;;;;;3.60;52.40;102678.46;1772585;79;21039;-53
2022/03/21 06:14:18;;;;;;;77.55;35.33;;;;;;;3.69;52.15;102681.80;1750200;82;21256;-53
2022/03/21 06:16:46;;;;;;;65.12;33.10;;;;;;;3.76;52.05;102683.87;1779473;79;21391;-52
2022/03/21 06:19:13;;;;;;;69.03;34.08;;;;;;;3.86;51.98;102695.88;1757620;79;21054;-53
2022/03/21 06:21:40;;;;;;;68.05;34.70;;;;;;;3.94;51.78;102702.29;1764788;79;21546;-53
2022/03/21 06:24:12;;;;;;;63.48;33.65;;;;;;;4.01;51.69;102700.45;1765842;80;21046;-53
2022/03/21 06:26:38;;;;;;;66.77;33.45;;;;;;;4.09;51.52;102712.92;1765504;79;21243;-53
2022/03/21 06:29:05;;;;;;;64.53;34.10;;;;;;;4.15;51.36;102709.34;1726966;82;21091;-54
2022/03/21 06:31:33;;;;;;;68.60;33.70;;;;;;;4.24;51.21;102714.43;1758768;80;21114;-53
2022/03/21 06:34:00;;;;;;;60.78;30.40;;;;;;;4.27;51.31;102711.33;1754432;79;21509;-53
2022/03/21 06:36:27;;;;;;;62.55;33.30;;;;;;;4.35;51.15;102709.88;1757875;79;21012;-53
2022/03/21 06:38:54;;;;;;;67.40;31.82;;;;;;;4.41;50.67;102711.54;1764652;80;21752;-54
2022/03/21 06:41:22;;;;;;;57.65;30.17;;;;;;;4.45;50.53;102711.89;1764462;80;21045;-54
2022/03/21 06:43:49;;;;;;;59.77;28.62;;;;;;;4.50;50.56;102709.22;1756366;80;21031;-53
2022/03/21 06:46:17;;;;;;;57.27;28.67;;;;;;;4.54;50.48;102710.45;1763556;79;21104;-52
2022/03/21 06:48:46;;;;;;;45.50;26.27;;;;;;;4.61;50.56;102716.41;1759294;79;21105;-53
2022/03/21 06:51:13;;;;;;;45.92;25.85;;;;;;;4.63;50.25;102715.48;1765330;80;21559;-53
2022/03/21 06:53:40;;;;;;;53.83;27.32;;;;;;;4.69;50.35;102715.84;1768503;79;21012;-53
2022/03/21 06:56:08;;;;;;;41.35;24.37;;;;;;;4.74;50.25;102720.95;1765330;80;21078;-53
2022/03/21 06:58:35;;;;;;;45.95;25.15;;;;;;;4.80;50.03;102715.63;1772075;80;21056;-53
2022/03/21 07:01:03;;;;;;;40.58;24.43;;;;;;;4.87;50.04;102721.59;1757504;79;21027;-53
2022/03/21 07:03:32;;;;;;;41.15;24.60;;;;;;;4.93;49.64;102714.97;1760308;80;21279;-53
2022/03/21 07:05:59;;;;;;;48.85;23.22;;;;;;;4.99;49.73;102715.71;1763716;80;21153;-54
2022/03/21 07:08:27;;;;;;;41.37;22.80;;;;;;;5.07;49.46;102717.30;1762558;80;21042;-53
2022/03/21 07:10:54;;;;;;;42.70;21.73;;;;;;;5.13;49.24;102717.19;1762828;79;21067;-54
2022/03/21 07:13:22;;;;;;;47.98;22.55;;;;;;;5.18;49.12;102717.51;1765666;80;21217;-53
2022/03/21 07:15:51;;;;;;;35.73;21.93;;;;;;;5.25;49.00;102718.70;1758825;80;21249;-54
2022/03/21 07:18:19;;;;;;;40.45;22.27;;;;;;;5.30;48.84;102721.62;1761961;80;21105;-55
2022/03/21 07:20:47;;;;;;;32.03;18.70;;;;;;;5.34;48.69;102719.34;1764150;80;21016;-54
2022/03/21 07:23:15;;;;;;;41.63;20.43;;;;;;;5.40;48.66;102722.30;1766803;80;21051;-53
2022/03/21 07:25:42;;;;;;;37.42;19.73;;;;;;;5.43;48.49;102710.48;1762985;79;21690;-54
2022/03/21 07:28:09;;;;;;;32.53;18.23;;;;;;;5.49;48.61;102708.18;1765474;79;21253;-54
2022/03/21 07:30:37;;;;;;;34.18;17.90;;;;;;;5.56;48.29;102713.25;1780231;79;21622;-54
2022/03/21 07:33:04;;;;;;;31.95;17.35;;;;;;;5.64;48.52;102707.84;1778023;80;21035;-54
2022/03/21 07:35:31;;;;;;;34.30;17.77;;;;;;;5.72;48.19;102708.53;1775535;78;21427;-54
2022/03/21 07:37:59;;;;;;;33.18;16.95;;;;;;;5.81;47.88;102707.91;1775131;79;21551;-54
2022/03/21 07:40:26;;;;;;;29.18;16.15;;;;;;;5.91;47.94;102712.03;1777947;79;21263;-54
2022/03/21 07:42:54;;;;;;;29.42;16.17;;;;;;;6.01;47.91;102710.10;1779858;79;21019;-54
2022/03/21 07:48:07;;;;;;;32.42;16.57;;;;;;;6.21;47.43;102719.62;1777129;78;21046;-54
2022/03/21 07:50:35;;;;;;;34.48;16.90;;;;;;;6.29;47.00;102720.30;1775581;78;21029;-54
2022/03/21 07:53:03;;;;;;;35.13;17.12;;;;;;;6.38;47.03;102718.36;1778051;78;21962;-54
2022/03/21 07:55:31;;;;;;;29.32;14.58;;;;;;;6.46;46.95;102721.19;1778872;78;21093;-54
2022/03/21 07:57:59;;;;;;;23.18;13.18;;;;;;;6.55;46.60;102722.70;1772515;80;21057;-54
2022/03/21 08:00:28;;;;;;;24.40;13.30;;;;;;;6.61;46.51;102716.47;1773832;78;21054;-55
2022/03/21 08:02:58;;;;;;;27.13;14.03;;;;;;;6.67;46.39;102708.02;1772002;79;21022;-54
2022/03/21 08:05:28;;;;;;;25.88;13.32;;;;;;;6.73;46.66;102714.83;1776959;80;21158;-54
2022/03/21 08:07:56;;;;;;;25.77;11.95;;;;;;;6.80;46.29;102699.36;1773584;78;21511;-54
2022/03/21 08:10:24;;;;;;;21.97;11.30;;;;;;;6.89;46.08;102699.56;1776482;78;21089;-53
2022/03/21 08:12:51;;;;;;;18.32;10.85;;;;;;;6.99;45.81;102705.41;1773613;78;21106;-53
2022/03/21 08:15:18;;;;;;;16.23;9.35;;;;;;;7.07;45.81;102700.35;1778384;79;21114;-53
2022/03/21 08:17:59;;;;;;;17.55;9.53;;;;;;;7.17;45.41;102700.11;1779361;78;22164;-54
2022/03/21 08:20:34;;;;;;;16.32;8.38;;;;;;;7.21;45.30;102701.30;1780401;80;21085;-53
2022/03/21 08:23:08;;;;;;;19.07;8.88;;;;;;;7.26;45.37;102695.90;1778989;80;21532;-53
2022/03/21 08:25:36;;;;;;;13.85;8.38;;;;;;;7.35;45.18;102692.18;1778873;78;21042;-53
2022/03/21 08:28:07;;;;;;;15.13;7.53;;;;;;;7.44;45.17;102690.58;1765873;79;21505;-53
2022/03/21 08:30:35;;;;;;;13.32;7.30;;;;;;;7.51;45.15;102682.94;1759567;79;21257;-53
2022/03/21 08:33:06;;;;;;;15.63;7.45;;;;;;;7.61;44.98;102690.06;1768917;79;21079;-53
2022/03/21 08:35:36;;;;;;;15.90;7.08;;;;;;;7.69;44.41;102685.91;1764524;80;21054;-53
2022/03/21 08:38:05;;;;;;;13.58;7.40;;;;;;;7.79;44.12;102683.41;1730127;81;21003;-53
2022/03/21 08:43:03;;;;;;;10.78;6.55;;;;;;;7.98;43.79;102676.68;1795869;78;23216;-53
2022/03/21 08:45:30;;;;;;;9.58;5.75;;;;;;;8.01;43.48;102680.95;1777864;80;21006;-53
2022/03/21 08:47:58;;;;;;;10.72;5.55;;;;;;;8.06;43.45;102680.81;1774856;78;21881;-54
2022/03/21 08:50:26;;;;;;;10.05;5.00;;;;;;;8.10;42.55;102676.73;1766803;80;21036;-53
2022/03/21 08:52:56;;;;;;;10.35;4.95;;;;;;;8.16;42.33;102677.82;1768927;80;21054;-53
2022/03/21 08:55:24;;;;;;;10.30;4.45;;;;;;;8.22;42.36;102676.78;1778909;80;21497;-52
2022/03/21 08:57:51;;;;;;;12.47;4.58;;;;;;;8.28;42.28;102675.24;1781783;78;21493;-54
2022/03/21 09:00:19;;;;;;;9.58;4.85;;;;;;;8.34;41.80;102674.20;1760915;78;21190;-53
2022/03/21 09:02:48;;;;;;;8.70;4.47;;;;;;;8.41;41.56;102675.69;1762250;80;21114;-53
2022/03/21 09:05:19;;;;;;;8.73;4.53;;;;;;;8.45;40.97;102671.23;1717834;81;21119;-53
2022/03/21 09:07:46;;;;;;;7.50;3.22;;;;;;;8.49;41.28;102673.70;1718051;81;21092;-52
2022/03/21 09:10:16;;;;;;;8.48;3.75;;;;;;;8.51;41.00;102667.94;1720650;81;21004;-53
2022/03/21 09:12:43;;;;;;;8.00;3.98;;;;;;;8.53;40.30;102654.30;1724771;81;21264;-54
2022/03/21 09:15:11;;;;;;;6.92;3.67;;;;;;;8.62;40.77;102666.23;1725088;82;21121;-53
2022/03/21 09:17:40;;;;;;;7.95;3.77;;;;;;;8.69;40.69;102661.63;1719686;82;21070;-53
2022/03/21 09:20:09;;;;;;;8.30;4.05;;;;;;;8.72;40.61;102651.90;1726246;81;21148;-54
2022/03/21 09:22:36;;;;;;;12.00;4.35;;;;;;;8.80;40.37;102663.87;1715586;82;21141;-54
2022/03/21 09:25:05;;;;;;;8.95;4.00;;;;;;;8.88;40.09;102653.96;1719820;82;22151;-52
2022/03/21 09:27:32;;;;;;;6.60;3.90;;;;;;;8.96;40.02;102652.34;1721934;82;21037;-54
2022/03/21 09:29:59;;;;;;;6.72;3.17;;;;;;;9.02;39.66;102649.50;1715249;82;21502;-54
2022/03/21 09:32:26;;;;;;;8.30;3.60;;;;;;;9.11;39.62;102646.52;1718978;81;21065;-54
2022/03/21 09:34:54;;;;;;;9.68;3.55;;;;;;;9.21;39.24;102644.41;1729688;82;21038;-53
2022/03/21 09:37:22;;;;;;;7.55;3.37;;;;;;;9.30;39.33;102648.01;1719323;81;21155;-54
2022/03/21 09:39:49;;;;;;;8.30;3.15;;;;;;;9.36;38.82;102633.30;1727925;82;21054;-54
2022/03/21 09:42:20;;;;;;;7.20;3.50;;;;;;;9.47;38.45;102636.84;1717115;81;21068;-53
2022/03/21 09:44:53;;;;;;;6.15;2.80;;;;;;;9.58;38.61;102637.72;1765936;79;21070;-54
2022/03/21 09:50:03;;;;;;;8.08;3.58;;;;;;;9.66;37.89;102634.33;1773719;80;21247;-53
2022/03/21 09:52:31;;;;;;;6.60;3.67;;;;;;;9.73;38.02;102628.36;1767188;80;21059;-53
2022/03/21 09:54:58;;;;;;;9.38;3.45;;;;;;;9.81;37.95;102627.59;1751430;79;22019;-52
2022/03/21 09:57:26;;;;;;;7.08;2.83;;;;;;;9.87;37.58;102627.36;1769458;80;21109;-52
2022/03/21 09:59:55;;;;;;;7.25;3.27;;;;;;;9.96;37.46;102623.02;1754163;79;21003;-52
2022/03/21 10:02:22;;;;;;;8.10;3.72;;;;;;;10.02;37.17;102622.77;1744436;80;21237;-53
2022/03/21 10:04:51;;;;;;;7.22;3.40;;;;;;;10.08;37.14;102625.59;1756775;79;21058;-52
2022/03/21 10:07:25;;;;;;;6.65;2.83;;;;;;;10.14;36.79;102620.55;1760626;80;21008;-53
2022/03/21 10:10:10;;;;;;;6.37;3.02;;;;;;;10.20;36.99;102620.27;1742828;81;21538;-53
2022/03/21 10:12:37;;;;;;;4.95;2.52;;;;;;;10.26;37.08;102617.85;1724455;79;21082;-53
2022/03/21 10:15:09;;;;;;;7.62;3.15;;;;;;;10.34;37.05;102614.43;1749856;79;21137;-53
2022/03/21 10:17:37;;;;;;;8.28;3.20;;;;;;;10.38;36.47;102608.98;1755081;80;21031;-53
2022/03/21 10:20:15;;;;;;;8.25;3.60;;;;;;;10.45;36.54;102613.52;1756810;79;21114;-53
2022/03/21 10:22:41;;;;;;;7.90;3.30;;;;;;;10.48;36.37;102602.85;1753476;80;21055;-54
2022/03/21 10:25:08;;;;;;;6.60;3.62;;;;;;;10.55;36.39;102603.44;1729859;80;21074;-53
2022/03/21 10:27:41;;;;;;;6.92;3.12;;;;;;;10.63;36.58;102601.80;1765501;80;21278;-54
2022/03/21 10:30:15;;;;;;;6.12;2.42;;;;;;;10.67;35.70;102599.40;1743635;80;21093;-54
2022/03/21 10:32:48;;;;;;;5.62;2.95;;;;;;;10.74;35.80;102590.29;1754145;80;21094;-53
2022/03/21 10:35:18;;;;;;;6.97;2.80;;;;;;;10.80;35.52;102581.27;1756595;79;21067;-53
2022/03/21 10:37:48;;;;;;;7.45;2.80;;;;;;;10.85;35.34;102591.13;1760737;79;21098;-52
2022/03/21 10:40:24;;;;;;;5.90;2.05;;;;;;;10.89;35.17;102585.66;1754612;80;21114;-53
2022/03/21 10:42:55;;;;;;;9.83;2.15;;;;;;;10.93;34.91;102583.73;1748093;80;21531;-53
2022/03/21 10:45:24;;;;;;;7.72;2.60;;;;;;;11.01;34.98;102584.68;1740399;82;21058;-52
2022/03/21 10:47:52;;;;;;;7.47;2.67;;;;;;;11.04;34.56;102574.00;1741388;80;21081;-51
2022/03/21 10:50:34;;;;;;;5.28;1.95;;;;;;;11.05;34.29;102577.04;1728736;80;21140;-52
2022/03/21 10:53:15;;;;;;;5.17;2.27;;;;;;;11.08;34.27;102587.44;1744292;80;21160;-52
2022/03/21 10:55:51;;;;;;;5.70;2.20;;;;;;;11.11;34.45;102578.05;1740503;80;21565;-51
2022/03/21 10:58:22;;;;;;;4.35;1.90;;;;;;;11.16;34.31;102573.41;1715148;82;21760;-54
2022/03/21 11:00:49;;;;;;;4.72;1.75;;;;;;;11.26;34.37;102581.30;1711189;82;21127;-54
2022/03/21 11:03:17;;;;;;;7.03;2.65;;;;;;;11.33;34.38;102569.97;1738716;80;21550;-53
2022/03/21 11:05:46;;;;;;;4.90;1.72;;;;;;;11.42;34.06;102564.73;1734244;80;21247;-53
2022/03/21 11:08:16;;;;;;;6.60;1.92;;;;;;;11.50;34.07;102565.22;1745738;80;21086;-53
2022/03/21 11:10:45;;;;;;;6.45;2.08;;;;;;;11.52;33.38;102562.03;1736182;81;21016;-53
2022/03/21 11:13:13;;;;;;;5.67;2.15;;;;;;;11.52;33.44;102562.03;1758151;80;21110;-52
2022/03/21 11:15:40;;;;;;;5.28;1.87;;;;;;;11.52;33.37;102558.08;1732676;80;21074;-52
2022/03/21 11:18:08;;;;;;;4.28;1.62;;;;;;;11.55;33.17;102555.73;1735954;80;22074;-52
2022/03/21 11:20:35;;;;;;;6.17;1.72;;;;;;;11.59;33.20;102555.99;1746761;82;21074;-52
2022/03/21 11:23:02;;;;;;;4.37;1.62;;;;;;;11.62;33.25;102550.57;1740026;80;21533;-53
2022/03/21 11:25:32;;;;;;;5.33;2.10;;;;;;;11.66;33.16;102552.95;1747003;80;21043;-53
2022/03/21 11:28:10;;;;;;;3.87;1.65;;;;;;;11.69;33.05;102548.85;1746187;80;21081;-52
2022/03/21 11:31:04;;;;;;;6.60;1.62;;;;;;;11.74;33.32;102542.51;1737264;82;21250;-54
2022/03/21 11:33:51;;;;;;;6.60;1.60;;;;;;;11.83;32.92;102545.98;1748172;80;21545;-53
2022/03/21 11:36:18;;;;;;;5.80;1.55;;;;;;;11.90;32.90;102549.56;1749346;80;21108;-54
2022/03/21 11:38:47;;;;;;;4.60;1.75;;;;;;;11.99;32.82;102547.42;1743379;81;21172;-53
2022/03/21 11:41:21;;;;;;;5.80;1.67;;;;;;;12.04;32.89;102548.03;1743484;80;21062;-51
2022/03/21 11:44:15;;;;;;;5.57;2.00;;;;;;;12.11;32.93;102538.02;1770849;79;21206;-52
2022/03/21 11:46:45;;;;;;;5.50;1.70;;;;;;;12.18;32.66;102539.39;1753690;79;21091;-54
2022/03/21 11:49:25;;;;;;;5.70;1.82;;;;;;;12.25;32.38;102535.05;1751033;80;20996;-54
2022/03/21 11:51:56;;;;;;;4.87;1.95;;;;;;;12.34;32.39;102533.70;1772601;79;21051;-53